Time;durP1;ratioP1;P1;durP2;ratioP2;P2;SDS_P1;SDS_P2;PMS_P1;PMS_P2;Temp;Humidity;BMP_temperature;BMP_pressure;BME280_temperature;BME280_humidity;BME280_pressure;Samples;Min_cycle;Max_cycle;Signal;HPM_P1;HPM_P2
2022/05/28 00:01:16;;;;;;;9.63;2.00;;;;;;;14.68;47.29;102090.78;5012902;28;114173;-59
2022/05/28 00:03:45;;;;;;;7.93;1.90;;;;;;;14.69;47.14;102084.50;5013248;28;123927;-60
2022/05/28 00:06:13;;;;;;;8.65;2.00;;;;;;;14.71;47.17;102077.28;5009580;28;123813;-59
2022/05/28 00:08:42;;;;;;;7.85;1.92;;;;;;;14.70;47.22;102083.59;5011429;28;114485;-59
2022/05/28 00:11:19;;;;;;;10.65;2.15;;;;;;;14.69;47.23;102087.16;5010638;28;114364;-59
2022/05/28 00:13:48;;;;;;;9.25;1.90;;;;;;;14.69;47.29;102084.50;4992906;28;124034;-59
2022/05/28 00:16:17;;;;;;;10.65;2.17;;;;;;;14.69;47.42;102079.16;5011419;28;124206;-59
2022/05/28 00:18:45;;;;;;;7.70;1.98;;;;;;;14.68;47.23;102088.13;5014006;28;114511;-59
2022/05/28 00:21:14;;;;;;;4.88;1.83;;;;;;;14.65;47.39;102083.75;5014610;28;113745;-59
2022/05/28 00:23:44;;;;;;;7.35;1.90;;;;;;;14.63;47.41;102079.44;5015431;28;123928;-59
2022/05/28 00:26:12;;;;;;;5.60;1.77;;;;;;;14.61;47.28;102082.16;5012636;28;124581;-59
2022/05/28 00:28:40;;;;;;;7.22;2.05;;;;;;;14.60;47.46;102075.97;5009600;28;113384;-59
2022/05/28 00:31:07;;;;;;;10.05;2.28;;;;;;;14.60;47.56;102075.09;5010979;28;114757;-60
2022/05/28 00:33:35;;;;;;;5.47;1.75;;;;;;;14.58;47.53;102077.84;5013076;28;124847;-60
2022/05/28 00:36:05;;;;;;;6.90;1.90;;;;;;;14.56;47.61;102079.66;5009542;28;123905;-59
2022/05/28 00:38:32;;;;;;;8.48;2.03;;;;;;;14.53;47.74;102063.78;5010839;28;114705;-60
2022/05/28 00:41:00;;;;;;;6.97;1.75;;;;;;;14.52;47.62;102072.75;5013163;28;113970;-59
2022/05/28 00:43:29;;;;;;;7.43;2.05;;;;;;;14.50;47.61;102068.38;5011087;28;124154;-60
2022/05/28 00:46:19;;;;;;;6.13;1.70;;;;;;;14.47;47.85;102056.06;5014825;28;123848;-59
2022/05/28 00:48:51;;;;;;;5.22;2.00;;;;;;;14.48;47.93;102063.09;5009987;28;114240;-60
2022/05/28 00:51:33;;;;;;;7.90;2.10;;;;;;;14.47;48.09;102058.72;5010023;28;113764;-59
2022/05/28 00:54:04;;;;;;;8.00;2.30;;;;;;;14.45;47.99;102060.59;5010519;28;123910;-59
2022/05/28 00:56:32;;;;;;;6.60;2.00;;;;;;;14.47;48.13;102057.88;5014016;28;123795;-59
2022/05/28 00:58:59;;;;;;;8.63;1.98;;;;;;;14.47;48.12;102058.72;5011536;28;114579;-60
2022/05/28 01:01:29;;;;;;;11.93;2.40;;;;;;;14.48;48.18;102060.44;5011389;28;113871;-59
2022/05/28 01:04:18;;;;;;;7.07;2.08;;;;;;;14.49;47.92;102067.53;5010633;28;124431;-59
2022/05/28 01:07:04;;;;;;;4.50;1.85;;;;;;;14.49;48.12;102062.19;5014091;28;124355;-59
2022/05/28 01:09:49;;;;;;;10.10;2.08;;;;;;;14.48;48.30;102065.78;5011223;28;113976;-60
2022/05/28 01:12:38;;;;;;;7.95;2.35;;;;;;;14.47;48.34;102058.72;5011734;28;113939;-60
2022/05/28 01:15:11;;;;;;;5.97;1.88;;;;;;;14.47;48.15;102058.72;5012259;28;123959;-59
2022/05/28 01:18:13;;;;;;;9.13;2.15;;;;;;;14.45;48.22;102049.94;5008808;28;124320;-60
2022/05/28 01:20:45;;;;;;;8.77;2.20;;;;;;;14.44;48.26;102048.19;5006346;28;115119;-59
2022/05/28 01:23:40;;;;;;;6.85;2.25;;;;;;;14.44;48.31;102049.97;5011616;28;114958;-59
2022/05/28 01:26:40;;;;;;;7.57;2.03;;;;;;;14.42;48.24;102055.38;5008712;28;125117;-59
2022/05/28 01:29:10;;;;;;;9.80;2.33;;;;;;;14.38;48.34;102054.63;5007764;28;123927;-59
2022/05/28 01:31:38;;;;;;;8.75;2.03;;;;;;;14.37;48.28;102052.03;5014440;28;114922;-59
2022/05/28 01:34:08;;;;;;;10.40;2.40;;;;;;;14.37;48.54;102052.03;5006900;28;113912;-59
2022/05/28 01:36:37;;;;;;;9.30;2.28;;;;;;;14.36;48.42;102044.97;5011101;28;124146;-59
2022/05/28 01:39:06;;;;;;;6.78;2.47;;;;;;;14.35;48.62;102048.56;5008250;28;123855;-59
2022/05/28 01:41:37;;;;;;;6.68;2.28;;;;;;;14.36;48.76;102050.31;5009218;28;114498;-59
2022/05/28 01:44:08;;;;;;;10.35;2.47;;;;;;;14.34;48.60;102046.84;5007193;28;112996;-59
2022/05/28 01:46:38;;;;;;;6.80;2.05;;;;;;;14.33;48.88;102047.75;5007519;28;124682;-59
2022/05/28 01:49:09;;;;;;;8.45;2.17;;;;;;;14.33;49.01;102045.09;5009070;28;124618;-59
2022/05/28 01:51:42;;;;;;;8.38;2.28;;;;;;;14.31;48.92;102041.63;5008501;28;114505;-59
2022/05/28 01:54:11;;;;;;;9.73;2.03;;;;;;;14.31;48.77;102041.63;5010009;28;113901;-59
2022/05/28 01:56:45;;;;;;;6.75;2.17;;;;;;;14.29;49.02;102054.16;5013034;28;123970;-59
2022/05/28 01:59:16;;;;;;;7.28;2.20;;;;;;;14.28;49.14;102052.41;5006556;28;123782;-58
2022/05/28 02:01:43;;;;;;;7.75;1.90;;;;;;;14.25;49.15;102052.53;5006245;28;113417;-59
2022/05/28 02:04:11;;;;;;;10.98;2.10;;;;;;;14.23;49.21;102049.09;5009688;28;114257;-59
2022/05/28 02:06:41;;;;;;;9.45;2.17;;;;;;;14.23;49.24;102043.75;5009508;28;123835;-59
2022/05/28 02:09:16;;;;;;;8.27;2.10;;;;;;;14.20;49.43;102053.59;5007313;28;124587;-60
2022/05/28 02:11:52;;;;;;;;;;;;;;;14.16;48.89;102038.66;5007181;28;115484;-59
2022/05/28 02:14:38;;;;;;;8.05;2.20;;;;;;;14.15;48.98;102036.94;5009467;28;114858;-59
2022/05/28 02:17:17;;;;;;;6.82;2.30;;;;;;;14.14;49.30;102035.19;5015327;28;123913;-59
2022/05/28 02:20:08;;;;;;;7.40;2.10;;;;;;;14.13;49.42;102028.13;5006796;28;123792;-59
2022/05/28 02:22:54;;;;;;;7.35;1.92;;;;;;;14.11;49.36;102024.66;5012230;28;114360;-59
2022/05/28 02:25:36;;;;;;;10.38;2.20;;;;;;;14.09;49.69;102023.88;5010158;28;114015;-60
2022/05/28 02:28:07;;;;;;;6.70;2.20;;;;;;;14.09;49.74;102015.88;5012095;28;123151;-59
2022/05/28 02:30:46;;;;;;;8.60;2.40;;;;;;;14.11;49.87;102024.66;5011736;28;124099;-59
2022/05/28 02:33:13;;;;;;;7.05;2.05;;;;;;;14.12;49.85;102021.06;5009497;28;114159;-59
2022/05/28 02:35:41;;;;;;;11.43;2.20;;;;;;;14.11;49.78;102014.03;5007053;28;112876;-59
2022/05/28 02:38:08;;;;;;;9.15;2.55;;;;;;;14.13;50.11;102011.28;5010669;28;124314;-59
2022/05/28 02:40:35;;;;;;;6.60;2.40;;;;;;;14.11;50.06;102008.69;5006708;28;124134;-59
2022/05/28 02:43:02;;;;;;;7.70;2.55;;;;;;;14.09;50.18;102010.56;5009762;28;114439;-59
2022/05/28 02:45:29;;;;;;;8.55;2.42;;;;;;;14.09;50.11;102005.22;5007447;28;114280;-60
2022/05/28 02:47:56;;;;;;;9.90;2.67;;;;;;;14.08;50.18;102007.94;5010122;28;124750;-59
2022/05/28 02:50:27;;;;;;;7.07;2.25;;;;;;;14.05;50.20;102003.59;5005600;28;124505;-60
2022/05/28 02:52:55;;;;;;;6.97;2.35;;;;;;;14.05;50.32;102013.38;5018106;28;114079;-59
2022/05/28 02:55:23;;;;;;;14.20;2.65;;;;;;;14.02;50.27;102019.72;5005141;28;113648;-59
2022/05/28 02:57:51;;;;;;;7.30;2.40;;;;;;;14.01;50.34;102012.66;5007629;28;124062;-59
2022/05/28 03:00:18;;;;;;;7.50;2.45;;;;;;;13.98;50.41;102018.13;5010132;28;123989;-60
2022/05/28 03:02:45;;;;;;;10.40;2.42;;;;;;;13.97;50.69;102019.88;5011357;28;115121;-60
2022/05/28 03:05:19;;;;;;;9.00;2.30;;;;;;;13.97;50.81;102021.69;5010219;28;115624;-59
2022/05/28 03:07:47;;;;;;;8.23;2.50;;;;;;;13.96;50.75;102030.63;5006749;28;123957;-57
2022/05/28 03:10:14;;;;;;;9.35;2.67;;;;;;;13.97;50.79;102027.03;5007390;28;124339;-58
2022/05/28 03:12:41;;;;;;;7.85;2.25;;;;;;;13.96;50.95;102030.63;5010948;28;114674;-58
2022/05/28 03:15:09;;;;;;;9.50;2.53;;;;;;;13.95;51.00;102029.75;5018299;28;114007;-58
2022/05/28 03:17:37;;;;;;;8.18;2.30;;;;;;;13.94;50.88;102032.50;5012337;28;124362;-58
2022/05/28 03:20:05;;;;;;;6.82;2.20;;;;;;;13.93;51.10;102030.75;5009362;28;123757;-58
2022/05/28 03:22:32;;;;;;;7.88;2.28;;;;;;;13.92;51.21;102034.31;5015638;28;114142;-58
2022/05/28 03:24:59;;;;;;;7.47;2.13;;;;;;;13.92;51.32;102034.31;5012445;28;114728;-58
2022/05/28 03:27:27;;;;;;;5.97;2.00;;;;;;;13.92;51.27;102034.31;5009469;28;124035;-59
2022/05/28 03:29:54;;;;;;;8.55;2.80;;;;;;;13.91;51.49;102032.59;5009460;28;124591;-58
2022/05/28 03:32:21;;;;;;;11.38;2.88;;;;;;;13.90;51.31;102026.41;5011015;28;114603;-58
2022/05/28 03:34:48;;;;;;;9.90;2.20;;;;;;;13.91;51.62;102032.59;5010011;28;113812;-59
2022/05/28 03:37:15;;;;;;;10.02;2.20;;;;;;;13.91;51.43;102027.28;5010144;28;124046;-59
2022/05/28 03:39:42;;;;;;;11.10;2.60;;;;;;;13.91;51.49;102033.47;5013230;28;123812;-58
2022/05/28 03:42:10;;;;;;;11.85;2.72;;;;;;;13.92;51.77;102039.66;5012743;28;114277;-58
2022/05/28 03:44:37;;;;;;;7.57;2.42;;;;;;;13.90;51.69;102033.50;5012762;28;113861;-58
2022/05/28 03:47:06;;;;;;;7.10;2.20;;;;;;;13.91;51.93;102037.94;5011876;28;123967;-58
2022/05/28 03:49:37;;;;;;;9.63;2.22;;;;;;;13.91;52.00;102037.94;5010167;28;124098;-58
2022/05/28 03:52:05;;;;;;;9.82;2.38;;;;;;;13.92;51.94;102039.66;5011197;28;115801;-58
2022/05/28 03:54:32;;;;;;;7.85;2.10;;;;;;;13.92;52.04;102039.66;5012061;28;114161;-59
2022/05/28 03:57:06;;;;;;;10.77;2.60;;;;;;;13.93;52.25;102041.41;5016977;28;123843;-59
2022/05/28 03:59:34;;;;;;;8.73;2.60;;;;;;;13.92;52.01;102044.97;5012350;28;124557;-58
2022/05/28 04:02:03;;;;;;;10.13;2.30;;;;;;;13.92;52.28;102050.28;5014501;28;114150;-59
2022/05/28 04:04:31;;;;;;;12.48;2.45;;;;;;;13.93;52.18;102049.38;5014013;28;114011;-58
2022/05/28 04:07:00;;;;;;;8.00;2.00;;;;;;;13.94;52.28;102048.47;5011810;28;123842;-58
2022/05/28 04:09:28;;;;;;;5.20;2.15;;;;;;;13.96;52.60;102051.94;5010394;28;123939;-59
2022/05/28 04:11:55;;;;;;;6.28;1.70;;;;;;;13.97;52.52;102058.97;5010014;28;114928;-58
2022/05/28 04:14:22;;;;;;;9.88;1.83;;;;;;;13.98;52.60;102055.41;5010850;28;114768;-58
2022/05/28 04:16:49;;;;;;;8.68;2.20;;;;;;;14.00;52.50;102059.72;5009925;28;123957;-58
2022/05/28 04:19:16;;;;;;;9.25;1.95;;;;;;;14.03;52.74;102061.38;5010408;28;124491;-58
2022/05/28 04:21:44;;;;;;;9.43;2.10;;;;;;;14.05;52.84;102056.88;5010068;28;113505;-59
2022/05/28 04:24:11;;;;;;;10.25;2.03;;;;;;;14.07;52.81;102065.69;5013167;28;114859;-58
2022/05/28 04:26:38;;;;;;;5.70;1.80;;;;;;;14.11;52.96;102063.75;5016749;28;122835;-58
2022/05/28 04:29:06;;;;;;;5.57;1.88;;;;;;;14.13;53.03;102068.09;5014575;28;123862;-58
2022/05/28 04:31:33;;;;;;;9.82;1.70;;;;;;;14.16;53.11;102065.28;5014464;28;115673;-57
2022/05/28 04:34:00;;;;;;;11.02;2.20;;;;;;;14.19;53.23;102065.19;5012761;28;113865;-58
2022/05/28 04:36:27;;;;;;;8.80;2.13;;;;;;;14.23;53.39;102070.41;5012055;28;123999;-57
2022/05/28 04:38:54;;;;;;;8.57;2.40;;;;;;;14.26;53.49;102059.59;5011556;28;123673;-58
2022/05/28 04:41:22;;;;;;;7.57;1.85;;;;;;;14.31;53.41;102068.28;5012271;28;115032;-57
2022/05/28 04:43:49;;;;;;;9.45;1.80;;;;;;;14.40;53.54;102062.56;5012936;28;114979;-58
2022/05/28 04:46:16;;;;;;;10.77;1.73;;;;;;;14.51;54.23;102071.00;5009380;28;123898;-58
2022/05/28 04:48:44;;;;;;;5.07;1.73;;;;;;;14.65;54.16;102073.09;5009372;28;123798;-59
2022/05/28 04:51:11;;;;;;;7.15;1.67;;;;;;;14.80;54.16;102071.56;5010369;28;114286;-58
2022/05/28 04:53:38;;;;;;;8.55;2.13;;;;;;;14.91;54.10;102071.97;5009410;28;114398;-59
2022/05/28 04:56:06;;;;;;;10.50;1.70;;;;;;;15.03;53.87;102073.25;5006353;28;123874;-59
2022/05/28 04:58:39;;;;;;;7.55;1.70;;;;;;;15.12;53.81;102077.31;5009385;28;124251;-59
2022/05/28 05:01:06;;;;;;;12.30;1.80;;;;;;;15.20;53.64;102072.50;5007597;28;113364;-60
2022/05/28 05:03:34;;;;;;;7.43;1.75;;;;;;;15.26;53.37;102068.69;5010933;28;113958;-59
2022/05/28 05:06:01;;;;;;;8.10;1.40;;;;;;;15.32;53.23;102077.28;5008394;28;123823;-58
2022/05/28 05:08:30;;;;;;;5.10;1.30;;;;;;;15.37;52.98;102071.75;5013452;28;124707;-59
2022/05/28 05:10:57;;;;;;;5.40;1.30;;;;;;;15.38;52.98;102079.66;5014452;28;114142;-58
2022/05/28 05:13:25;;;;;;;7.90;1.30;;;;;;;15.43;52.89;102075.94;5010550;28;113366;-59
2022/05/28 05:15:52;;;;;;;6.45;1.30;;;;;;;15.46;52.75;102083.78;5008564;28;124745;-59
2022/05/28 05:18:19;;;;;;;4.10;1.17;;;;;;;15.47;52.68;102082.88;5010561;28;124654;-58
2022/05/28 05:20:46;;;;;;;7.50;1.40;;;;;;;15.51;52.62;102087.13;5008041;28;115036;-59
2022/05/28 05:23:13;;;;;;;6.65;1.25;;;;;;;15.53;52.50;102080.78;5008967;28;113866;-58
2022/05/28 05:25:40;;;;;;;5.15;1.27;;;;;;;15.56;52.30;102088.66;5012720;28;124076;-58
2022/05/28 05:28:08;;;;;;;6.35;1.45;;;;;;;15.59;52.35;102092.97;5009452;28;123895;-59
2022/05/28 05:30:35;;;;;;;9.18;1.30;;;;;;;15.59;52.26;102087.63;5009531;28;115005;-59
2022/05/28 05:33:02;;;;;;;4.53;1.00;;;;;;;15.62;52.18;102087.50;5008699;28;115226;-59
2022/05/28 05:35:30;;;;;;;12.80;1.60;;;;;;;15.66;52.30;102094.44;5013814;28;124559;-59
2022/05/28 05:37:59;;;;;;;7.20;1.10;;;;;;;15.69;52.07;102094.28;5010628;28;124338;-59
2022/05/28 05:40:26;;;;;;;8.95;1.35;;;;;;;15.72;51.97;102088.78;5008436;28;114107;-58
2022/05/28 05:42:53;;;;;;;5.10;1.00;;;;;;;15.76;51.86;102090.44;5009829;28;114435;-58
2022/05/28 05:45:20;;;;;;;5.82;1.50;;;;;;;15.80;51.79;102090.28;5010730;28;124077;-59
2022/05/28 05:47:47;;;;;;;8.75;1.58;;;;;;;15.83;51.92;102087.47;5010819;28;124686;-58
2022/05/28 05:50:14;;;;;;;5.75;1.08;;;;;;;15.87;51.72;102097.06;5011071;28;115175;-58
2022/05/28 05:52:41;;;;;;;4.63;1.15;;;;;;;15.90;51.71;102102.28;5011952;28;113905;-58
2022/05/28 05:55:16;;;;;;;7.10;1.20;;;;;;;15.92;51.62;102095.06;5014373;28;124112;-58
2022/05/28 05:57:43;;;;;;;3.22;0.88;;;;;;;15.97;51.50;102098.34;5007951;28;124359;-58
2022/05/28 06:00:11;;;;;;;6.10;1.15;;;;;;;16.02;51.62;102108.84;5007728;28;114187;-58
2022/05/28 06:02:38;;;;;;;5.38;1.77;;;;;;;16.06;51.21;102103.25;5013063;28;114139;-59
2022/05/28 06:05:06;;;;;;;6.75;1.20;;;;;;;16.10;51.24;102104.84;5011267;28;124096;-59
2022/05/28 06:07:33;;;;;;;4.82;0.98;;;;;;;16.14;51.25;102105.56;5007849;28;126642;-59
2022/05/28 06:10:00;;;;;;;2.92;0.70;;;;;;;16.22;51.21;102107.84;5008946;28;114414;-59
2022/05/28 06:12:27;;;;;;;5.63;1.00;;;;;;;16.31;51.12;102108.31;5015521;28;113816;-59
2022/05/28 06:14:54;;;;;;;6.10;1.13;;;;;;;16.40;51.04;102106.97;5013152;28;125149;-59
2022/05/28 06:17:22;;;;;;;3.95;0.95;;;;;;;16.44;50.56;102108.53;5012872;28;124345;-59
2022/05/28 06:19:52;;;;;;;5.72;0.90;;;;;;;16.49;50.72;102106.50;5006914;28;115100;-59
2022/05/28 06:22:19;;;;;;;3.85;0.80;;;;;;;16.59;50.67;102111.41;5006100;28;114989;-59
2022/05/28 06:24:46;;;;;;;6.13;0.95;;;;;;;16.68;50.44;102105.59;5007423;28;123678;-58
2022/05/28 06:27:14;;;;;;;3.65;0.90;;;;;;;16.76;49.97;102108.72;5007473;28;124652;-59
2022/05/28 06:29:41;;;;;;;4.35;0.85;;;;;;;16.82;50.11;102108.47;5009750;28;114267;-59
2022/05/28 06:32:08;;;;;;;2.17;0.65;;;;;;;16.88;49.85;102115.31;5011912;28;113881;-59
2022/05/28 06:34:35;;;;;;;5.45;0.80;;;;;;;16.97;49.29;102116.63;5012002;28;123195;-59
2022/05/28 06:37:07;;;;;;;5.30;1.00;;;;;;;16.97;48.99;102105.94;5011859;28;123972;-58
2022/05/28 06:39:36;;;;;;;4.32;1.00;;;;;;;17.03;49.04;102121.69;5009596;28;113550;-58
2022/05/28 06:42:04;;;;;;;4.10;0.80;;;;;;;17.10;48.83;102117.72;5008491;28;113731;-58
2022/05/28 06:44:31;;;;;;;6.78;0.95;;;;;;;17.18;48.58;102115.53;5003602;28;124660;-58
2022/05/28 06:46:58;;;;;;;3.10;0.90;;;;;;;17.25;48.35;102116.94;5007318;28;123815;-58
2022/05/28 06:49:25;;;;;;;3.60;0.80;;;;;;;17.36;48.25;102121.72;5008926;28;114278;-58
2022/05/28 06:51:53;;;;;;;5.68;0.75;;;;;;;17.42;47.85;102123.19;5011770;28;113767;-59
2022/05/28 06:54:20;;;;;;;4.68;1.00;;;;;;;17.47;47.72;102118.47;5009432;28;123972;-59
2022/05/28 06:56:47;;;;;;;5.07;0.82;;;;;;;17.48;47.54;102123.75;5010216;28;124249;-59
2022/05/28 06:59:14;;;;;;;3.58;0.80;;;;;;;17.53;47.65;102123.50;5010393;28;114796;-59
2022/05/28 07:01:41;;;;;;;4.15;0.80;;;;;;;17.64;47.76;102123.78;5010380;28;113973;-59
2022/05/28 07:04:08;;;;;;;3.60;0.80;;;;;;;17.74;47.51;102128.63;5011299;28;123965;-59
2022/05/28 07:06:36;;;;;;;1.95;0.80;;;;;;;17.81;47.18;102130.03;5009409;28;123759;-58
2022/05/28 07:09:07;;;;;;;5.35;0.82;;;;;;;17.86;46.78;102133.38;5006862;28;115972;-59
2022/05/28 07:11:34;;;;;;;3.53;0.98;;;;;;;17.90;46.67;102134.94;5009520;28;115031;-58
2022/05/28 07:14:01;;;;;;;2.33;0.70;;;;;;;17.91;46.39;102131.28;5009406;28;123932;-59
2022/05/28 07:16:28;;;;;;;8.00;1.20;;;;;;;17.92;46.38;102133.03;5005236;28;124776;-58
2022/05/28 07:18:55;;;;;;;3.83;0.85;;;;;;;17.97;46.39;102136.31;5010058;28;114209;-58
2022/05/28 07:21:22;;;;;;;3.92;0.90;;;;;;;18.00;46.08;102136.13;5007194;28;114294;-59
2022/05/28 07:23:49;;;;;;;5.60;0.80;;;;;;;18.01;45.92;102134.34;5007869;28;123481;-58
2022/05/28 07:26:17;;;;;;;4.63;1.00;;;;;;;18.02;45.79;102139.59;5007739;28;123673;-58
2022/05/28 07:28:46;;;;;;;3.17;0.80;;;;;;;18.07;45.79;102142.03;5006986;28;114065;-58
2022/05/28 07:31:17;;;;;;;4.22;0.80;;;;;;;18.16;45.71;102132.59;5010696;28;114676;-58
2022/05/28 07:33:46;;;;;;;3.53;0.70;;;;;;;18.29;45.65;102130.97;5004729;28;124194;-59
2022/05/28 07:36:17;;;;;;;3.17;0.70;;;;;;;18.42;45.45;102137.34;5011118;28;123609;-58
2022/05/28 07:38:45;;;;;;;3.92;0.88;;;;;;;18.61;45.61;102130.91;5004341;28;115332;-58
2022/05/28 07:41:17;;;;;;;4.07;0.90;;;;;;;18.80;45.26;102131.59;5007020;28;113924;-59
2022/05/28 07:43:44;;;;;;;2.15;0.73;;;;;;;18.89;44.90;102122.09;4988788;28;124358;-59
2022/05/28 07:46:14;;;;;;;1.75;0.68;;;;;;;18.88;44.06;102132.97;5005671;28;124720;-58
2022/05/28 07:48:42;;;;;;;3.55;0.70;;;;;;;18.81;44.11;102133.31;5010357;28;114156;-59
2022/05/28 07:51:09;;;;;;;2.40;0.77;;;;;;;18.79;44.17;102134.34;5007853;28;114048;-59
2022/05/28 07:53:38;;;;;;;3.47;0.75;;;;;;;18.86;44.27;102131.22;5005925;28;124825;-58
2022/05/28 07:56:09;;;;;;;2.70;0.57;;;;;;;19.01;44.12;102134.81;5014014;27;122897;-59
2022/05/28 07:58:37;;;;;;;5.10;0.80;;;;;;;19.17;43.71;102118.63;5008346;28;115159;-58
2022/05/28 08:01:04;;;;;;;4.07;0.70;;;;;;;19.31;43.68;102135.72;5012228;28;113810;-59
2022/05/28 08:03:34;;;;;;;4.07;0.70;;;;;;;19.40;43.10;102132.47;5014204;28;123886;-59
2022/05/28 08:06:02;;;;;;;3.83;0.98;;;;;;;19.49;42.79;102133.72;5008678;28;123886;-58
2022/05/28 08:08:29;;;;;;;3.67;0.80;;;;;;;19.56;42.58;102125.19;5007418;28;114397;-58
2022/05/28 08:10:56;;;;;;;1.95;0.60;;;;;;;19.60;42.31;102124.03;5016673;28;114257;-58
2022/05/28 08:13:24;;;;;;;2.38;0.60;;;;;;;19.67;41.91;102126.34;5009973;28;124124;-60
2022/05/28 08:15:54;;;;;;;3.83;0.80;;;;;;;19.71;41.85;102122.50;5013310;28;123963;-58
2022/05/28 08:18:24;;;;;;;2.70;0.80;;;;;;;19.77;41.75;102122.13;5010344;28;114515;-59
2022/05/28 08:23:42;;;;;;;3.30;0.60;;;;;;;19.92;41.56;102121.16;5009737;28;124461;-58
2022/05/28 08:26:11;;;;;;;1.90;0.77;;;;;;;19.97;41.14;102119.03;5012441;28;123687;-58
2022/05/28 08:28:40;;;;;;;3.63;0.80;;;;;;;20.02;40.88;102111.53;5007836;28;114370;-58
2022/05/28 08:31:08;;;;;;;2.00;0.75;;;;;;;20.09;40.81;102114.69;5011915;28;114470;-58
2022/05/28 08:33:35;;;;;;;5.47;0.73;;;;;;;20.17;40.95;102114.19;5016420;28;124213;-59
2022/05/28 08:36:04;;;;;;;4.10;0.70;;;;;;;20.28;40.80;102114.34;5016149;28;123905;-58
2022/05/28 08:38:31;;;;;;;2.45;0.90;;;;;;;20.37;40.48;102113.72;5009882;28;114591;-59
2022/05/28 08:41:13;;;;;;;3.50;0.90;;;;;;;20.40;40.30;102116.22;5010372;28;113776;-58
2022/05/28 08:43:49;;;;;;;3.50;0.77;;;;;;;20.47;39.94;102115.81;4994910;28;125041;-58
2022/05/28 08:46:18;;;;;;;1.20;0.70;;;;;;;20.51;39.96;102106.56;5011720;28;123787;-59
2022/05/28 08:48:48;;;;;;;3.95;0.90;;;;;;;20.58;39.95;102107.88;5014678;28;114873;-58
2022/05/28 08:51:44;;;;;;;6.10;1.00;;;;;;;20.64;39.52;102106.63;5008441;28;115503;-58
2022/05/28 08:54:30;;;;;;;;;;;;;;;20.67;40.75;102117.22;5003566;28;123962;-58
2022/05/28 08:57:02;;;;;;;2.50;0.75;;;;;;;20.68;39.99;102116.22;4998236;28;123993;-58
2022/05/28 08:59:40;;;;;;;3.88;0.60;;;;;;;20.63;39.31;102115.69;5007819;28;114075;-58
2022/05/28 09:02:15;;;;;;;3.47;0.90;;;;;;;20.43;39.02;102116.00;5007388;28;114816;-58
2022/05/28 09:04:44;;;;;;;5.32;1.23;;;;;;;20.25;39.18;102122.63;5014423;28;124015;-58
2022/05/28 09:07:14;;;;;;;4.28;1.00;;;;;;;20.09;39.20;102121.91;5016719;27;124330;-59
2022/05/28 09:09:49;;;;;;;3.38;0.82;;;;;;;20.02;39.47;102127.69;5017500;28;114354;-58
2022/05/28 09:12:19;;;;;;;3.05;0.70;;;;;;;20.03;40.18;102129.38;5014811;28;114801;-58
2022/05/28 09:14:46;;;;;;;2.88;0.80;;;;;;;20.11;40.06;102122.66;5004136;28;123845;-60
2022/05/28 09:17:32;;;;;;;3.72;0.90;;;;;;;20.17;39.99;102114.19;5010323;28;123202;-58
2022/05/28 09:20:06;;;;;;;3.75;0.90;;;;;;;20.24;39.49;102110.13;5008038;28;114208;-59
2022/05/28 09:22:33;;;;;;;3.95;1.10;;;;;;;20.30;40.02;102115.09;5011900;28;114497;-58
2022/05/28 09:25:01;;;;;;;3.58;0.80;;;;;;;20.25;39.50;102114.56;5012699;28;122809;-58
2022/05/28 09:27:57;;;;;;;2.08;0.70;;;;;;;20.14;39.37;102115.25;5011051;28;124234;-58
2022/05/28 09:30:59;;;;;;;3.70;0.80;;;;;;;20.09;39.57;102111.13;5008092;28;114591;-58
2022/05/28 09:33:58;;;;;;;4.75;0.90;;;;;;;20.06;39.52;102114.00;5014834;28;114431;-58
2022/05/28 09:36:35;;;;;;;4.30;0.98;;;;;;;20.10;39.34;102102.97;5010062;28;124277;-58
2022/05/28 09:39:25;;;;;;;3.03;0.80;;;;;;;20.22;39.48;102101.31;5013679;28;123858;-58
2022/05/28 09:42:08;;;;;;;3.13;0.80;;;;;;;20.37;39.12;102094.91;5012359;28;115078;-58
2022/05/28 09:44:56;;;;;;;4.40;0.88;;;;;;;20.45;38.70;102101.59;4995790;28;114771;-58
2022/05/28 09:47:23;;;;;;;3.67;1.10;;;;;;;20.45;38.72;102101.59;4998884;28;124641;-58
2022/05/28 09:49:54;;;;;;;2.78;0.95;;;;;;;20.45;38.08;102101.59;5010828;28;123915;-59
2022/05/28 09:52:27;;;;;;;1.50;0.52;;;;;;;20.41;37.89;102096.41;5011635;28;113931;-58
2022/05/28 09:55:15;;;;;;;2.83;0.85;;;;;;;20.38;38.11;102101.13;5010175;28;114516;-58
2022/05/28 09:58:01;;;;;;;3.17;1.00;;;;;;;20.36;37.96;102108.44;5014927;28;124886;-59
2022/05/28 10:00:29;;;;;;;6.53;1.23;;;;;;;20.35;38.11;102099.53;5025972;28;123571;-58
2022/05/28 10:05:57;;;;;;;4.95;0.90;;;;;;;20.40;37.97;102094.69;5004232;28;113818;-58
2022/05/28 10:08:32;;;;;;;3.65;1.08;;;;;;;20.43;38.40;102083.72;5020979;28;124076;-58
2022/05/28 10:11:02;;;;;;;6.93;1.10;;;;;;;20.56;38.65;102089.13;5010769;27;123617;-58
2022/05/28 10:13:45;;;;;;;4.60;1.23;;;;;;;20.68;38.48;102087.50;5009582;28;114571;-58
2022/05/28 10:16:17;;;;;;;4.10;0.93;;;;;;;20.70;37.69;102088.25;5008403;28;114442;-59
2022/05/28 10:19:27;;;;;;;2.78;0.90;;;;;;;20.69;37.48;102089.22;5007742;28;123999;-58
2022/05/28 10:21:57;;;;;;;6.57;1.30;;;;;;;20.73;37.61;102096.09;5025065;27;124274;-58
2022/05/28 10:24:27;;;;;;;3.92;1.17;;;;;;;20.84;38.21;102083.75;5026151;28;115012;-58
2022/05/28 10:26:57;;;;;;;4.63;1.35;;;;;;;20.93;37.61;102091.19;5008930;28;114515;-58
2022/05/28 10:29:37;;;;;;;2.83;0.80;;;;;;;20.96;37.33;102080.19;5010072;28;123825;-58
2022/05/28 10:32:29;;;;;;;5.65;0.95;;;;;;;20.97;37.62;102071.16;4998188;28;124367;-58
2022/05/28 10:34:59;;;;;;;5.35;0.80;;;;;;;20.95;37.12;102079.34;5007782;28;115297;-58
2022/05/28 10:37:26;;;;;;;8.50;1.20;;;;;;;20.85;36.85;102083.66;5010918;28;115027;-58
2022/05/28 10:40:08;;;;;;;3.63;0.93;;;;;;;20.71;36.80;102087.28;5009720;28;124515;-58
2022/05/28 10:42:37;;;;;;;4.75;1.00;;;;;;;20.68;37.31;102082.13;5011282;28;124024;-59
2022/05/28 10:45:08;;;;;;;5.28;1.00;;;;;;;20.75;37.50;102072.63;4992915;28;114325;-59
2022/05/28 10:47:59;;;;;;;2.65;0.90;;;;;;;20.87;37.42;102070.06;5010511;28;114480;-58
2022/05/28 10:50:36;;;;;;;2.42;0.90;;;;;;;20.90;36.66;102077.94;5007302;28;124584;-59
2022/05/28 10:53:09;;;;;;;7.28;0.93;;;;;;;20.82;36.55;102077.63;5014658;28;124168;-59
2022/05/28 10:55:48;;;;;;;3.53;0.80;;;;;;;20.70;36.45;102080.19;5009013;28;114673;-59
2022/05/28 10:58:24;;;;;;;4.32;0.90;;;;;;;20.62;36.58;102082.50;5015793;28;114885;-59
2022/05/28 11:00:53;;;;;;;4.25;1.35;;;;;;;20.61;36.85;102080.81;5011863;28;124636;-59
2022/05/28 11:03:58;;;;;;;6.03;1.17;;;;;;;20.60;36.85;102076.38;5007273;28;123709;-58
2022/05/28 11:06:50;;;;;;;4.25;1.00;;;;;;;20.51;36.69;102090.41;5005271;28;114408;-58
2022/05/28 11:09:27;;;;;;;4.45;1.00;;;;;;;20.40;36.74;102077.69;5011139;28;113791;-58
2022/05/28 11:13:06;;;;;;;5.45;1.02;;;;;;;20.40;37.16;102078.56;5006975;22;125105;-60
2022/05/28 11:15:53;;;;;;;4.20;0.90;;;;;;;20.53;37.59;102072.34;4976622;28;124258;-61
2022/05/28 11:18:36;;;;;;;3.67;0.90;;;;;;;20.66;37.53;102067.88;4997496;28;114257;-60
2022/05/28 11:21:25;;;;;;;3.85;1.20;;;;;;;20.75;37.39;102072.63;4989739;28;113936;-59
2022/05/28 11:24:04;;;;;;;4.20;0.80;;;;;;;20.73;37.00;102068.31;4971744;28;123987;-59
2022/05/28 11:26:43;;;;;;;3.38;0.90;;;;;;;20.62;36.39;102066.34;4995755;28;124519;-60
2022/05/28 11:29:41;;;;;;;5.53;1.00;;;;;;;20.49;36.68;102060.06;4989293;28;114953;-60
2022/05/28 11:32:25;;;;;;;4.68;1.02;;;;;;;20.48;37.35;102058.34;4980936;28;115061;-59
2022/05/28 11:35:01;;;;;;;6.93;1.10;;;;;;;20.58;37.43;102054.06;4977958;28;124112;-61
2022/05/28 11:37:41;;;;;;;3.53;0.80;;;;;;;20.74;37.29;102052.06;4990791;28;124141;-61
2022/05/28 11:40:27;;;;;;;3.25;0.82;;;;;;;20.97;37.04;102033.44;5004151;28;114258;-60
2022/05/28 11:43:03;;;;;;;2.58;0.80;;;;;;;21.11;36.43;102052.19;4989483;28;114037;-61
2022/05/28 11:45:43;;;;;;;3.42;1.10;;;;;;;21.11;35.95;102046.78;4981145;28;124463;-61